Saint Francis River (Missouri), Patterson (07037500)

StateMissouriLatestLow (194 cfs)
RiverSaint Francis RiverRatingObservedEstimated
Updated2022-09-25 21:00 (22 minutes ago)Flood - The river is flooding. Obstacles can be treacherous or deadly. The river should be avoided at this stage for casual trips and definitely for the inexperienced. Trips should be attempted only with protective gear and equipment.Flood(none)4350
Discharge194 cfs (median: 85 cfs)High - The river is high and potentially dangerous, especially for the young and / or inexperienced. Normal stream obstacles are sometimes difficult to navigate. Extended distances can be attempted, but canoe travel may not be advisable.High(none)781
Height4.58 feetGood - Conditions are ideal for a canoe or kayak. Boats typically will drag on fewer than one-quarter of riffles, if at all, and portages are unnecessary or rare. Normal float lengths can be attempted without a problem.Good2000287
TrendSteady (falling over 24 hours)Low - River is low but can still be floated. Some riffles are okay but most come with significant dragging and might need a portage. Float lengths should be reduced to accommodate low flow, dragging, and portages.Low(none)124
USGSExternal icon USGS Site (External icon Duck Duck Go Maps)Poor - River is too low to float comfortably. Most or all riffles will drag or must be portaged and some obstacles (such as slick shelf rock) cause undue problems. Avoid the river at this stage for casual paddling trips.Poor(none)27

Trending Data

Plot Image

Trips for Saint Francis River (Missouri), Patterson (07037500)

DateStartEndDistanceConditionDischargeHeightFishingDetails
Click for details2009-05-08 Big Creek Sam Baker State Park Total trip distance: 11.6 miles0.3 Good 2660 8.77 None NoneNone Bowe, Michelle
Edmond, Brian
Bowe, Michelle; Edmond, Brian
No notes for this trip<i>No notes for this trip</i> USGS Gauge Data:
Patterson (07037500)
Discharge: 2660
Height: 8.77
<b>USGS Gauge Data:</b></br />Patterson (07037500)<br />Discharge: 2660<br />Height: 8.77
Source: EdmondSource: Edmond

A total of 1 rows are displayed.

Trip Summary for Saint Francis River (Missouri), Patterson (07037500)

Miles0.3
Trips1
People2
Dates1
Years1
Months1
Rows1
Sources1

Condition Descriptions

Fishing Conditions

Fish Species

Notes

Classic Trip List

The classic River Trips application is still available for use. It is updated with the new system using a data retrofit. It is no longer maintained. The original River Trips application is no longer updated (as of 1 Dec 2016) but can be checked for errors or for the condition of the data before it was converted to the new system.

Gauge Data Table

ObservationHeightDischargeMaximum
Discharge
Minimum
Discharge
Mean
Discharge
P05P10P20P25P50
(Median)
P75P80P90P95
2022-09-25 21:00 4.58 194 8500 (1993) 14 (1953) 290 25 32 43 50 85 207 246 513 1260
2022-09-25 20:30 4.58 194 8500 (1993) 14 (1953) 290 25 32 43 50 85 207 246 513 1260
2022-09-25 20:00 4.58 194 8500 (1993) 14 (1953) 290 25 32 43 50 85 207 246 513 1260
2022-09-25 19:30 4.58 194 8500 (1993) 14 (1953) 290 25 32 43 50 85 207 246 513 1260
2022-09-25 19:00 4.58 194 8500 (1993) 14 (1953) 290 25 32 43 50 85 207 246 513 1260
2022-09-25 18:30 4.58 194 8500 (1993) 14 (1953) 290 25 32 43 50 85 207 246 513 1260
2022-09-25 18:00 4.59 196 8500 (1993) 14 (1953) 290 25 32 43 50 85 207 246 513 1260
2022-09-25 17:30 4.59 196 8500 (1993) 14 (1953) 290 25 32 43 50 85 207 246 513 1260
2022-09-25 17:00 4.54 185 8500 (1993) 14 (1953) 290 25 32 43 50 85 207 246 513 1260
2022-09-25 16:30 4.56 189 8500 (1993) 14 (1953) 290 25 32 43 50 85 207 246 513 1260
2022-09-25 16:00 4.54 185 8500 (1993) 14 (1953) 290 25 32 43 50 85 207 246 513 1260
2022-09-25 15:30 4.54 185 8500 (1993) 14 (1953) 290 25 32 43 50 85 207 246 513 1260
2022-09-25 15:00 4.54 185 8500 (1993) 14 (1953) 290 25 32 43 50 85 207 246 513 1260
2022-09-25 14:30 4.55 187 8500 (1993) 14 (1953) 290 25 32 43 50 85 207 246 513 1260
2022-09-25 14:00 4.57 192 8500 (1993) 14 (1953) 290 25 32 43 50 85 207 246 513 1260
2022-09-25 13:30 4.54 185 8500 (1993) 14 (1953) 290 25 32 43 50 85 207 246 513 1260
2022-09-25 13:00 4.54 185 8500 (1993) 14 (1953) 290 25 32 43 50 85 207 246 513 1260
2022-09-25 12:30 4.54 185 8500 (1993) 14 (1953) 290 25 32 43 50 85 207 246 513 1260
2022-09-25 12:00 4.53 183 8500 (1993) 14 (1953) 290 25 32 43 50 85 207 246 513 1260
2022-09-25 11:30 4.55 187 8500 (1993) 14 (1953) 290 25 32 43 50 85 207 246 513 1260
2022-09-25 11:00 4.58 194 8500 (1993) 14 (1953) 290 25 32 43 50 85 207 246 513 1260
2022-09-25 10:30 4.56 189 8500 (1993) 14 (1953) 290 25 32 43 50 85 207 246 513 1260
2022-09-25 10:00 4.57 192 8500 (1993) 14 (1953) 290 25 32 43 50 85 207 246 513 1260
2022-09-25 09:30 4.58 194 8500 (1993) 14 (1953) 290 25 32 43 50 85 207 246 513 1260
2022-09-25 09:00 4.60 198 8500 (1993) 14 (1953) 290 25 32 43 50 85 207 246 513 1260
2022-09-25 08:30 4.60 198 8500 (1993) 14 (1953) 290 25 32 43 50 85 207 246 513 1260
2022-09-25 08:00 4.60 198 8500 (1993) 14 (1953) 290 25 32 43 50 85 207 246 513 1260
2022-09-25 07:30 4.60 198 8500 (1993) 14 (1953) 290 25 32 43 50 85 207 246 513 1260
2022-09-25 07:00 4.60 198 8500 (1993) 14 (1953) 290 25 32 43 50 85 207 246 513 1260
2022-09-25 06:30 4.60 198 8500 (1993) 14 (1953) 290 25 32 43 50 85 207 246 513 1260
2022-09-25 06:00 4.60 198 8500 (1993) 14 (1953) 290 25 32 43 50 85 207 246 513 1260
2022-09-25 05:30 4.60 198 8500 (1993) 14 (1953) 290 25 32 43 50 85 207 246 513 1260
2022-09-25 05:00 4.60 198 8500 (1993) 14 (1953) 290 25 32 43 50 85 207 246 513 1260
2022-09-25 04:30 4.60 198 8500 (1993) 14 (1953) 290 25 32 43 50 85 207 246 513 1260
2022-09-25 04:00 4.60 198 8500 (1993) 14 (1953) 290 25 32 43 50 85 207 246 513 1260
2022-09-25 03:30 4.60 198 8500 (1993) 14 (1953) 290 25 32 43 50 85 207 246 513 1260
2022-09-25 03:00 4.60 198 8500 (1993) 14 (1953) 290 25 32 43 50 85 207 246 513 1260
2022-09-25 02:30 4.60 198 8500 (1993) 14 (1953) 290 25 32 43 50 85 207 246 513 1260
2022-09-25 02:00 4.60 198 8500 (1993) 14 (1953) 290 25 32 43 50 85 207 246 513 1260
2022-09-25 01:30 4.60 198 8500 (1993) 14 (1953) 290 25 32 43 50 85 207 246 513 1260
2022-09-25 01:00 4.60 198 8500 (1993) 14 (1953) 290 25 32 43 50 85 207 246 513 1260
2022-09-25 00:30 4.60 198 8500 (1993) 14 (1953) 290 25 32 43 50 85 207 246 513 1260
2022-09-25 00:00 4.60 198 8500 (1993) 14 (1953) 290 25 32 43 50 85 207 246 513 1260
2022-09-24 23:30 4.60 198 11000 (1993) 13 (1955) 341 26 32 41 51 85 205 250 517 608
2022-09-24 23:00 4.60 198 11000 (1993) 13 (1955) 341 26 32 41 51 85 205 250 517 608
2022-09-24 22:30 4.60 198 11000 (1993) 13 (1955) 341 26 32 41 51 85 205 250 517 608
2022-09-24 22:00 4.60 198 11000 (1993) 13 (1955) 341 26 32 41 51 85 205 250 517 608
2022-09-24 21:30 4.60 198 11000 (1993) 13 (1955) 341 26 32 41 51 85 205 250 517 608
2022-09-24 21:00 4.60 198 11000 (1993) 13 (1955) 341 26 32 41 51 85 205 250 517 608
2022-09-24 20:30 4.60 198 11000 (1993) 13 (1955) 341 26 32 41 51 85 205 250 517 608
2022-09-24 20:00 4.60 198 11000 (1993) 13 (1955) 341 26 32 41 51 85 205 250 517 608
2022-09-24 19:30 4.60 198 11000 (1993) 13 (1955) 341 26 32 41 51 85 205 250 517 608
2022-09-24 19:00 4.60 198 11000 (1993) 13 (1955) 341 26 32 41 51 85 205 250 517 608
2022-09-24 18:30 4.60 198 11000 (1993) 13 (1955) 341 26 32 41 51 85 205 250 517 608
2022-09-24 18:00 4.60 198 11000 (1993) 13 (1955) 341 26 32 41 51 85 205 250 517 608
2022-09-24 17:30 4.60 198 11000 (1993) 13 (1955) 341 26 32 41 51 85 205 250 517 608
2022-09-24 17:00 4.61 201 11000 (1993) 13 (1955) 341 26 32 41 51 85 205 250 517 608
2022-09-24 16:30 4.60 198 11000 (1993) 13 (1955) 341 26 32 41 51 85 205 250 517 608
2022-09-24 16:00 4.61 201 11000 (1993) 13 (1955) 341 26 32 41 51 85 205 250 517 608
2022-09-24 15:30 4.61 201 11000 (1993) 13 (1955) 341 26 32 41 51 85 205 250 517 608
2022-09-24 15:00 4.57 192 11000 (1993) 13 (1955) 341 26 32 41 51 85 205 250 517 608
2022-09-24 14:30 4.61 201 11000 (1993) 13 (1955) 341 26 32 41 51 85 205 250 517 608
2022-09-24 14:00 4.61 201 11000 (1993) 13 (1955) 341 26 32 41 51 85 205 250 517 608
2022-09-24 13:30 4.61 201 11000 (1993) 13 (1955) 341 26 32 41 51 85 205 250 517 608
2022-09-24 13:00 4.61 201 11000 (1993) 13 (1955) 341 26 32 41 51 85 205 250 517 608
2022-09-24 12:30 4.61 201 11000 (1993) 13 (1955) 341 26 32 41 51 85 205 250 517 608
2022-09-24 12:00 4.61 201 11000 (1993) 13 (1955) 341 26 32 41 51 85 205 250 517 608
2022-09-24 11:30 4.61 201 11000 (1993) 13 (1955) 341 26 32 41 51 85 205 250 517 608
2022-09-24 11:00 4.61 201 11000 (1993) 13 (1955) 341 26 32 41 51 85 205 250 517 608
2022-09-24 10:30 4.61 201 11000 (1993) 13 (1955) 341 26 32 41 51 85 205 250 517 608
2022-09-24 10:00 4.58 194 11000 (1993) 13 (1955) 341 26 32 41 51 85 205 250 517 608
2022-09-24 09:30 4.61 201 11000 (1993) 13 (1955) 341 26 32 41 51 85 205 250 517 608
2022-09-24 09:00 4.61 201 11000 (1993) 13 (1955) 341 26 32 41 51 85 205 250 517 608
2022-09-24 08:30 4.61 201 11000 (1993) 13 (1955) 341 26 32 41 51 85 205 250 517 608
2022-09-24 08:00 4.61 201 11000 (1993) 13 (1955) 341 26 32 41 51 85 205 250 517 608
2022-09-24 07:30 4.61 201 11000 (1993) 13 (1955) 341 26 32 41 51 85 205 250 517 608
2022-09-24 07:00 4.61 201 11000 (1993) 13 (1955) 341 26 32 41 51 85 205 250 517 608
2022-09-24 06:30 4.61 201 11000 (1993) 13 (1955) 341 26 32 41 51 85 205 250 517 608
2022-09-24 06:00 4.61 201 11000 (1993) 13 (1955) 341 26 32 41 51 85 205 250 517 608
2022-09-24 05:30 4.61 201 11000 (1993) 13 (1955) 341 26 32 41 51 85 205 250 517 608
2022-09-24 05:00 4.61 201 11000 (1993) 13 (1955) 341 26 32 41 51 85 205 250 517 608
2022-09-24 04:30 4.61 201 11000 (1993) 13 (1955) 341 26 32 41 51 85 205 250 517 608
2022-09-24 04:00 4.61 201 11000 (1993) 13 (1955) 341 26 32 41 51 85 205 250 517 608
2022-09-24 03:30 4.61 201 11000 (1993) 13 (1955) 341 26 32 41 51 85 205 250 517 608
2022-09-24 03:00 4.61 201 11000 (1993) 13 (1955) 341 26 32 41 51 85 205 250 517 608
2022-09-24 02:30 4.61 201 11000 (1993) 13 (1955) 341 26 32 41 51 85 205 250 517 608
2022-09-24 02:00 4.61 201 11000 (1993) 13 (1955) 341 26 32 41 51 85 205 250 517 608
2022-09-24 01:30 4.61 201 11000 (1993) 13 (1955) 341 26 32 41 51 85 205 250 517 608
2022-09-24 01:00 4.61 201 11000 (1993) 13 (1955) 341 26 32 41 51 85 205 250 517 608
2022-09-24 00:30 4.61 201 11000 (1993) 13 (1955) 341 26 32 41 51 85 205 250 517 608
2022-09-24 00:00 4.61 201 11000 (1993) 13 (1955) 341 26 32 41 51 85 205 250 517 608
2022-09-23 23:30 4.61 201 21200 (1965) 13 (1955) 364 23 32 43 51 88 179 226 416 649
2022-09-23 23:00 4.61 201 21200 (1965) 13 (1955) 364 23 32 43 51 88 179 226 416 649
2022-09-23 22:30 4.61 201 21200 (1965) 13 (1955) 364 23 32 43 51 88 179 226 416 649
2022-09-23 22:00 4.61 201 21200 (1965) 13 (1955) 364 23 32 43 51 88 179 226 416 649
2022-09-23 21:30 4.61 201 21200 (1965) 13 (1955) 364 23 32 43 51 88 179 226 416 649
2022-09-23 21:00 4.61 201 21200 (1965) 13 (1955) 364 23 32 43 51 88 179 226 416 649
2022-09-23 20:30 4.61 201 21200 (1965) 13 (1955) 364 23 32 43 51 88 179 226 416 649
2022-09-23 20:00 4.61 201 21200 (1965) 13 (1955) 364 23 32 43 51 88 179 226 416 649
2022-09-23 19:30 4.61 201 21200 (1965) 13 (1955) 364 23 32 43 51 88 179 226 416 649
2022-09-23 19:00 4.61 201 21200 (1965) 13 (1955) 364 23 32 43 51 88 179 226 416 649
2022-09-23 18:30 4.61 201 21200 (1965) 13 (1955) 364 23 32 43 51 88 179 226 416 649
2022-09-23 18:00 4.61 201 21200 (1965) 13 (1955) 364 23 32 43 51 88 179 226 416 649
2022-09-23 17:30 4.56 189 21200 (1965) 13 (1955) 364 23 32 43 51 88 179 226 416 649
2022-09-23 17:00 4.61 201 21200 (1965) 13 (1955) 364 23 32 43 51 88 179 226 416 649
2022-09-23 16:30 4.56 189 21200 (1965) 13 (1955) 364 23 32 43 51 88 179 226 416 649
2022-09-23 16:00 4.58 194 21200 (1965) 13 (1955) 364 23 32 43 51 88 179 226 416 649
2022-09-23 15:30 4.58 194 21200 (1965) 13 (1955) 364 23 32 43 51 88 179 226 416 649
2022-09-23 15:00 4.57 192 21200 (1965) 13 (1955) 364 23 32 43 51 88 179 226 416 649
2022-09-23 14:30 4.57 192 21200 (1965) 13 (1955) 364 23 32 43 51 88 179 226 416 649
2022-09-23 14:00 4.57 192 21200 (1965) 13 (1955) 364 23 32 43 51 88 179 226 416 649
2022-09-23 13:30 4.58 194 21200 (1965) 13 (1955) 364 23 32 43 51 88 179 226 416 649
2022-09-23 13:00 4.57 192 21200 (1965) 13 (1955) 364 23 32 43 51 88 179 226 416 649
2022-09-23 12:30 4.57 192 21200 (1965) 13 (1955) 364 23 32 43 51 88 179 226 416 649
2022-09-23 12:00 4.62 203 21200 (1965) 13 (1955) 364 23 32 43 51 88 179 226 416 649
2022-09-23 11:30 4.59 196 21200 (1965) 13 (1955) 364 23 32 43 51 88 179 226 416 649
2022-09-23 11:00 4.57 192 21200 (1965) 13 (1955) 364 23 32 43 51 88 179 226 416 649
2022-09-23 10:30 4.60 198 21200 (1965) 13 (1955) 364 23 32 43 51 88 179 226 416 649
2022-09-23 10:00 4.57 192 21200 (1965) 13 (1955) 364 23 32 43 51 88 179 226 416 649
2022-09-23 09:00 4.62 203 21200 (1965) 13 (1955) 364 23 32 43 51 88 179 226 416 649
2022-09-23 08:30 4.62 203 21200 (1965) 13 (1955) 364 23 32 43 51 88 179 226 416 649
2022-09-23 08:00 4.62 203 21200 (1965) 13 (1955) 364 23 32 43 51 88 179 226 416 649
2022-09-23 07:30 4.62 203 21200 (1965) 13 (1955) 364 23 32 43 51 88 179 226 416 649
2022-09-23 07:00 4.62 203 21200 (1965) 13 (1955) 364 23 32 43 51 88 179 226 416 649
2022-09-23 06:30 4.62 203 21200 (1965) 13 (1955) 364 23 32 43 51 88 179 226 416 649
2022-09-23 06:00 4.62 203 21200 (1965) 13 (1955) 364 23 32 43 51 88 179 226 416 649
2022-09-23 05:30 4.62 203 21200 (1965) 13 (1955) 364 23 32 43 51 88 179 226 416 649
2022-09-23 05:00 4.62 203 21200 (1965) 13 (1955) 364 23 32 43 51 88 179 226 416 649
2022-09-23 04:30 4.62 203 21200 (1965) 13 (1955) 364 23 32 43 51 88 179 226 416 649
2022-09-23 04:00 4.62 203 21200 (1965) 13 (1955) 364 23 32 43 51 88 179 226 416 649
2022-09-23 03:30 4.62 203 21200 (1965) 13 (1955) 364 23 32 43 51 88 179 226 416 649
2022-09-23 03:00 4.62 203 21200 (1965) 13 (1955) 364 23 32 43 51 88 179 226 416 649
2022-09-23 02:30 4.62 203 21200 (1965) 13 (1955) 364 23 32 43 51 88 179 226 416 649
2022-09-23 02:00 4.62 203 21200 (1965) 13 (1955) 364 23 32 43 51 88 179 226 416 649
2022-09-23 01:30 4.62 203 21200 (1965) 13 (1955) 364 23 32 43 51 88 179 226 416 649
2022-09-23 01:00 4.62 203 21200 (1965) 13 (1955) 364 23 32 43 51 88 179 226 416 649
2022-09-23 00:30 4.62 203 21200 (1965) 13 (1955) 364 23 32 43 51 88 179 226 416 649
2022-09-23 00:00 4.62 203 21200 (1965) 13 (1955) 364 23 32 43 51 88 179 226 416 649
2022-09-22 23:30 4.62 203 21000 (1965) 9 (1955) 372 23 31 44 52 86 168 208 396 901
2022-09-22 23:00 4.62 203 21000 (1965) 9 (1955) 372 23 31 44 52 86 168 208 396 901
2022-09-22 22:30 4.62 203 21000 (1965) 9 (1955) 372 23 31 44 52 86 168 208 396 901
2022-09-22 22:00 4.62 203 21000 (1965) 9 (1955) 372 23 31 44 52 86 168 208 396 901
2022-09-22 21:30 4.62 203 21000 (1965) 9 (1955) 372 23 31 44 52 86 168 208 396 901
2022-09-22 21:00 4.62 203 21000 (1965) 9 (1955) 372 23 31 44 52 86 168 208 396 901
2022-09-22 20:30 4.62 203 21000 (1965) 9 (1955) 372 23 31 44 52 86 168 208 396 901
2022-09-22 20:00 4.62 203 21000 (1965) 9 (1955) 372 23 31 44 52 86 168 208 396 901
2022-09-22 19:30 4.62 203 21000 (1965) 9 (1955) 372 23 31 44 52 86 168 208 396 901
2022-09-22 19:00 4.62 203 21000 (1965) 9 (1955) 372 23 31 44 52 86 168 208 396 901
2022-09-22 18:30 4.62 203 21000 (1965) 9 (1955) 372 23 31 44 52 86 168 208 396 901
2022-09-22 18:00 4.62 203 21000 (1965) 9 (1955) 372 23 31 44 52 86 168 208 396 901
2022-09-22 17:30 4.63 205 21000 (1965) 9 (1955) 372 23 31 44 52 86 168 208 396 901
2022-09-22 17:00 4.62 203 21000 (1965) 9 (1955) 372 23 31 44 52 86 168 208 396 901
2022-09-22 16:30 4.58 194 21000 (1965) 9 (1955) 372 23 31 44 52 86 168 208 396 901
2022-09-22 16:00 4.62 203 21000 (1965) 9 (1955) 372 23 31 44 52 86 168 208 396 901
2022-09-22 15:30 4.61 201 21000 (1965) 9 (1955) 372 23 31 44 52 86 168 208 396 901
2022-09-22 15:00 4.59 196 21000 (1965) 9 (1955) 372 23 31 44 52 86 168 208 396 901
2022-09-22 14:30 4.60 198 21000 (1965) 9 (1955) 372 23 31 44 52 86 168 208 396 901
2022-09-22 14:00 4.58 194 21000 (1965) 9 (1955) 372 23 31 44 52 86 168 208 396 901
2022-09-22 13:30 4.61 201 21000 (1965) 9 (1955) 372 23 31 44 52 86 168 208 396 901
2022-09-22 13:00 4.61 201 21000 (1965) 9 (1955) 372 23 31 44 52 86 168 208 396 901
2022-09-22 12:30 4.63 205 21000 (1965) 9 (1955) 372 23 31 44 52 86 168 208 396 901
2022-09-22 12:00 4.63 205 21000 (1965) 9 (1955) 372 23 31 44 52 86 168 208 396 901
2022-09-22 11:30 4.64 208 21000 (1965) 9 (1955) 372 23 31 44 52 86 168 208 396 901
2022-09-22 11:00 4.64 208 21000 (1965) 9 (1955) 372 23 31 44 52 86 168 208 396 901
2022-09-22 10:30 4.64 208 21000 (1965) 9 (1955) 372 23 31 44 52 86 168 208 396 901
2022-09-22 10:00 4.64 208 21000 (1965) 9 (1955) 372 23 31 44 52 86 168 208 396 901
2022-09-22 09:30 4.64 208 21000 (1965) 9 (1955) 372 23 31 44 52 86 168 208 396 901
2022-09-22 09:00 4.64 208 21000 (1965) 9 (1955) 372 23 31 44 52 86 168 208 396 901
2022-09-22 08:30 4.64 208 21000 (1965) 9 (1955) 372 23 31 44 52 86 168 208 396 901
2022-09-22 08:00 4.64 208 21000 (1965) 9 (1955) 372 23 31 44 52 86 168 208 396 901
2022-09-22 07:30 4.64 208 21000 (1965) 9 (1955) 372 23 31 44 52 86 168 208 396 901
2022-09-22 07:00 4.64 208 21000 (1965) 9 (1955) 372 23 31 44 52 86 168 208 396 901
2022-09-22 06:30 4.64 208 21000 (1965) 9 (1955) 372 23 31 44 52 86 168 208 396 901
2022-09-22 06:00 4.64 208 21000 (1965) 9 (1955) 372 23 31 44 52 86 168 208 396 901
2022-09-22 05:00 4.64 208 21000 (1965) 9 (1955) 372 23 31 44 52 86 168 208 396 901
2022-09-22 04:30 4.64 208 21000 (1965) 9 (1955) 372 23 31 44 52 86 168 208 396 901
2022-09-22 04:00 4.64 208 21000 (1965) 9 (1955) 372 23 31 44 52 86 168 208 396 901
2022-09-22 03:30 4.63 205 21000 (1965) 9 (1955) 372 23 31 44 52 86 168 208 396 901
2022-09-22 03:00 4.64 208 21000 (1965) 9 (1955) 372 23 31 44 52 86 168 208 396 901
2022-09-22 02:30 4.64 208 21000 (1965) 9 (1955) 372 23 31 44 52 86 168 208 396 901
2022-09-22 02:00 4.64 208 21000 (1965) 9 (1955) 372 23 31 44 52 86 168 208 396 901
2022-09-22 01:30 4.64 208 21000 (1965) 9 (1955) 372 23 31 44 52 86 168 208 396 901
2022-09-22 01:00 4.64 208 21000 (1965) 9 (1955) 372 23 31 44 52 86 168 208 396 901
2022-09-22 00:30 4.64 208 21000 (1965) 9 (1955) 372 23 31 44 52 86 168 208 396 901
2022-09-22 00:00 4.64 208 21000 (1965) 9 (1955) 372 23 31 44 52 86 168 208 396 901
2022-09-21 23:30 4.64 208 1730 (1975) 10 (1955) 184 24 31 44 53 90 173 203 436 784
2022-09-21 23:00 4.64 208 1730 (1975) 10 (1955) 184 24 31 44 53 90 173 203 436 784
2022-09-21 22:30 4.64 208 1730 (1975) 10 (1955) 184 24 31 44 53 90 173 203 436 784
2022-09-21 22:00 4.64 208 1730 (1975) 10 (1955) 184 24 31 44 53 90 173 203 436 784
2022-09-21 21:30 4.63 205 1730 (1975) 10 (1955) 184 24 31 44 53 90 173 203 436 784
2022-09-21 21:00 4.63 205 1730 (1975) 10 (1955) 184 24 31 44 53 90 173 203 436 784
2022-09-21 20:30 4.63 205 1730 (1975) 10 (1955) 184 24 31 44 53 90 173 203 436 784
2022-09-21 20:00 4.63 205 1730 (1975) 10 (1955) 184 24 31 44 53 90 173 203 436 784
2022-09-21 19:30 4.63 205 1730 (1975) 10 (1955) 184 24 31 44 53 90 173 203 436 784
2022-09-21 19:00 4.63 205 1730 (1975) 10 (1955) 184 24 31 44 53 90 173 203 436 784
2022-09-21 18:30 4.63 205 1730 (1975) 10 (1955) 184 24 31 44 53 90 173 203 436 784
2022-09-21 18:00 4.63 205 1730 (1975) 10 (1955) 184 24 31 44 53 90 173 203 436 784
2022-09-21 17:30 4.63 205 1730 (1975) 10 (1955) 184 24 31 44 53 90 173 203 436 784
2022-09-21 17:00 4.64 208 1730 (1975) 10 (1955) 184 24 31 44 53 90 173 203 436 784
2022-09-21 16:30 4.64 208 1730 (1975) 10 (1955) 184 24 31 44 53 90 173 203 436 784
2022-09-21 16:00 4.65 210 1730 (1975) 10 (1955) 184 24 31 44 53 90 173 203 436 784
2022-09-21 15:30 4.63 205 1730 (1975) 10 (1955) 184 24 31 44 53 90 173 203 436 784
2022-09-21 15:00 4.61 201 1730 (1975) 10 (1955) 184 24 31 44 53 90 173 203 436 784
2022-09-21 14:30 4.65 210 1730 (1975) 10 (1955) 184 24 31 44 53 90 173 203 436 784
2022-09-21 14:00 4.65 210 1730 (1975) 10 (1955) 184 24 31 44 53 90 173 203 436 784
2022-09-21 13:30 4.62 203 1730 (1975) 10 (1955) 184 24 31 44 53 90 173 203 436 784
2022-09-21 13:00 4.62 203 1730 (1975) 10 (1955) 184 24 31 44 53 90 173 203 436 784
2022-09-21 12:30 4.65 210 1730 (1975) 10 (1955) 184 24 31 44 53 90 173 203 436 784
2022-09-21 12:00 4.65 210 1730 (1975) 10 (1955) 184 24 31 44 53 90 173 203 436 784
2022-09-21 11:30 4.64 208 1730 (1975) 10 (1955) 184 24 31 44 53 90 173 203 436 784
2022-09-21 11:00 4.65 210 1730 (1975) 10 (1955) 184 24 31 44 53 90 173 203 436 784
2022-09-21 10:30 4.65 210 1730 (1975) 10 (1955) 184 24 31 44 53 90 173 203 436 784
2022-09-21 10:00 4.65 210 1730 (1975) 10 (1955) 184 24 31 44 53 90 173 203 436 784
2022-09-21 09:30 4.65 210 1730 (1975) 10 (1955) 184 24 31 44 53 90 173 203 436 784
2022-09-21 09:00 4.65 210 1730 (1975) 10 (1955) 184 24 31 44 53 90 173 203 436 784
2022-09-21 08:30 4.65 210 1730 (1975) 10 (1955) 184 24 31 44 53 90 173 203 436 784
2022-09-21 08:00 4.65 210 1730 (1975) 10 (1955) 184 24 31 44 53 90 173 203 436 784
2022-09-21 07:30 4.65 210 1730 (1975) 10 (1955) 184 24 31 44 53 90 173 203 436 784
2022-09-21 07:00 4.65 210 1730 (1975) 10 (1955) 184 24 31 44 53 90 173 203 436 784
2022-09-21 06:30 4.65 210 1730 (1975) 10 (1955) 184 24 31 44 53 90 173 203 436 784
2022-09-21 06:00 4.65 210 1730 (1975) 10 (1955) 184 24 31 44 53 90 173 203 436 784
2022-09-21 05:30 4.65 210 1730 (1975) 10 (1955) 184 24 31 44 53 90 173 203 436 784
2022-09-21 05:00 4.65 210 1730 (1975) 10 (1955) 184 24 31 44 53 90 173 203 436 784
2022-09-21 04:30 4.65 210 1730 (1975) 10 (1955) 184 24 31 44 53 90 173 203 436 784
2022-09-21 04:00 4.65 210 1730 (1975) 10 (1955) 184 24 31 44 53 90 173 203 436 784
2022-09-21 03:30 4.65 210 1730 (1975) 10 (1955) 184 24 31 44 53 90 173 203 436 784
2022-09-21 03:00 4.65 210 1730 (1975) 10 (1955) 184 24 31 44 53 90 173 203 436 784
2022-09-21 02:30 4.65 210 1730 (1975) 10 (1955) 184 24 31 44 53 90 173 203 436 784
2022-09-21 02:00 4.65 210 1730 (1975) 10 (1955) 184 24 31 44 53 90 173 203 436 784
2022-09-21 01:30 4.65 210 1730 (1975) 10 (1955) 184 24 31 44 53 90 173 203 436 784
2022-09-21 01:00 4.65 210 1730 (1975) 10 (1955) 184 24 31 44 53 90 173 203 436 784
2022-09-21 00:30 4.65 210 1730 (1975) 10 (1955) 184 24 31 44 53 90 173 203 436 784
2022-09-21 00:00 4.65 210 1730 (1975) 10 (1955) 184 24 31 44 53 90 173 203 436 784
2022-09-20 23:30 4.65 210 3920 (1924) 9 (1955) 221 22 30 42 47 81 171 222 381 1020
2022-09-20 23:00 4.65 210 3920 (1924) 9 (1955) 221 22 30 42 47 81 171 222 381 1020
2022-09-20 22:30 4.65 210 3920 (1924) 9 (1955) 221 22 30 42 47 81 171 222 381 1020
2022-09-20 22:00 4.65 210 3920 (1924) 9 (1955) 221 22 30 42 47 81 171 222 381 1020
2022-09-20 21:30 4.66 213 3920 (1924) 9 (1955) 221 22 30 42 47 81 171 222 381 1020
2022-09-20 21:00 4.65 210 3920 (1924) 9 (1955) 221 22 30 42 47 81 171 222 381 1020
2022-09-20 20:30 4.66 213 3920 (1924) 9 (1955) 221 22 30 42 47 81 171 222 381 1020
2022-09-20 20:00 4.66 213 3920 (1924) 9 (1955) 221 22 30 42 47 81 171 222 381 1020
2022-09-20 19:30 4.66 213 3920 (1924) 9 (1955) 221 22 30 42 47 81 171 222 381 1020
2022-09-20 19:00 4.66 213 3920 (1924) 9 (1955) 221 22 30 42 47 81 171 222 381 1020
2022-09-20 18:30 4.66 213 3920 (1924) 9 (1955) 221 22 30 42 47 81 171 222 381 1020
2022-09-20 18:00 4.66 213 3920 (1924) 9 (1955) 221 22 30 42 47 81 171 222 381 1020
2022-09-20 17:30 4.66 213 3920 (1924) 9 (1955) 221 22 30 42 47 81 171 222 381 1020
2022-09-20 17:00 4.66 213 3920 (1924) 9 (1955) 221 22 30 42 47 81 171 222 381 1020
2022-09-20 16:30 4.66 213 3920 (1924) 9 (1955) 221 22 30 42 47 81 171 222 381 1020
2022-09-20 16:00 4.67 215 3920 (1924) 9 (1955) 221 22 30 42 47 81 171 222 381 1020
2022-09-20 15:30 4.67 215 3920 (1924) 9 (1955) 221 22 30 42 47 81 171 222 381 1020
2022-09-20 15:00 4.67 215 3920 (1924) 9 (1955) 221 22 30 42 47 81 171 222 381 1020
2022-09-20 14:30 4.67 215 3920 (1924) 9 (1955) 221 22 30 42 47 81 171 222 381 1020
2022-09-20 14:00 4.65 210 3920 (1924) 9 (1955) 221 22 30 42 47 81 171 222 381 1020
2022-09-20 13:30 4.64 208 3920 (1924) 9 (1955) 221 22 30 42 47 81 171 222 381 1020
2022-09-20 13:00 4.67 215 3920 (1924) 9 (1955) 221 22 30 42 47 81 171 222 381 1020
2022-09-20 12:30 4.67 215 3920 (1924) 9 (1955) 221 22 30 42 47 81 171 222 381 1020
2022-09-20 12:00 4.63 205 3920 (1924) 9 (1955) 221 22 30 42 47 81 171 222 381 1020
2022-09-20 11:30 4.67 215 3920 (1924) 9 (1955) 221 22 30 42 47 81 171 222 381 1020
2022-09-20 11:00 4.67 215 3920 (1924) 9 (1955) 221 22 30 42 47 81 171 222 381 1020
2022-09-20 10:30 4.67 215 3920 (1924) 9 (1955) 221 22 30 42 47 81 171 222 381 1020
2022-09-20 10:00 4.67 215 3920 (1924) 9 (1955) 221 22 30 42 47 81 171 222 381 1020
2022-09-20 09:30 4.67 215 3920 (1924) 9 (1955) 221 22 30 42 47 81 171 222 381 1020
2022-09-20 09:00 4.67 215 3920 (1924) 9 (1955) 221 22 30 42 47 81 171 222 381 1020
2022-09-20 08:30 4.67 215 3920 (1924) 9 (1955) 221 22 30 42 47 81 171 222 381 1020
2022-09-20 08:00 4.67 215 3920 (1924) 9 (1955) 221 22 30 42 47 81 171 222 381 1020
2022-09-20 07:30 4.67 215 3920 (1924) 9 (1955) 221 22 30 42 47 81 171 222 381 1020
2022-09-20 07:00 4.67 215 3920 (1924) 9 (1955) 221 22 30 42 47 81 171 222 381 1020
2022-09-20 06:30 4.67 215 3920 (1924) 9 (1955) 221 22 30 42 47 81 171 222 381 1020
2022-09-20 06:00 4.67 215 3920 (1924) 9 (1955) 221 22 30 42 47 81 171 222 381 1020
2022-09-20 05:30 4.67 215 3920 (1924) 9 (1955) 221 22 30 42 47 81 171 222 381 1020
2022-09-20 05:00 4.67 215 3920 (1924) 9 (1955) 221 22 30 42 47 81 171 222 381 1020
2022-09-20 04:30 4.67 215 3920 (1924) 9 (1955) 221 22 30 42 47 81 171 222 381 1020
2022-09-20 04:00 4.67 215 3920 (1924) 9 (1955) 221 22 30 42 47 81 171 222 381 1020
2022-09-20 03:30 4.67 215 3920 (1924) 9 (1955) 221 22 30 42 47 81 171 222 381 1020
2022-09-20 03:00 4.67 215 3920 (1924) 9 (1955) 221 22 30 42 47 81 171 222 381 1020
2022-09-20 02:30 4.67 215 3920 (1924) 9 (1955) 221 22 30 42 47 81 171 222 381 1020
2022-09-20 02:00 4.67 215 3920 (1924) 9 (1955) 221 22 30 42 47 81 171 222 381 1020
2022-09-20 01:30 4.67 215 3920 (1924) 9 (1955) 221 22 30 42 47 81 171 222 381 1020
2022-09-20 01:00 4.67 215 3920 (1924) 9 (1955) 221 22 30 42 47 81 171 222 381 1020
2022-09-20 00:30 4.67 215 3920 (1924) 9 (1955) 221 22 30 42 47 81 171 222 381 1020
2022-09-20 00:00 4.67 215 3920 (1924) 9 (1955) 221 22 30 42 47 81 171 222 381 1020
2022-09-19 23:30 4.68 217 3860 (1982) 9 (1955) 215 18 30 42 48 81 152 196 378 788
2022-09-19 23:00 4.68 217 3860 (1982) 9 (1955) 215 18 30 42 48 81 152 196 378 788
2022-09-19 22:30 4.68 217 3860 (1982) 9 (1955) 215 18 30 42 48 81 152 196 378 788
2022-09-19 22:00 4.68 217 3860 (1982) 9 (1955) 215 18 30 42 48 81 152 196 378 788
2022-09-19 21:30 4.68 217 3860 (1982) 9 (1955) 215 18 30 42 48 81 152 196 378 788
2022-09-19 21:00 4.68 217 3860 (1982) 9 (1955) 215 18 30 42 48 81 152 196 378 788
2022-09-19 20:30 4.68 217 3860 (1982) 9 (1955) 215 18 30 42 48 81 152 196 378 788
2022-09-19 20:00 4.68 217 3860 (1982) 9 (1955) 215 18 30 42 48 81 152 196 378 788
2022-09-19 19:30 4.68 217 3860 (1982) 9 (1955) 215 18 30 42 48 81 152 196 378 788
2022-09-19 19:00 4.68 217 3860 (1982) 9 (1955) 215 18 30 42 48 81 152 196 378 788
2022-09-19 18:30 4.68 217 3860 (1982) 9 (1955) 215 18 30 42 48 81 152 196 378 788
2022-09-19 18:00 4.68 217 3860 (1982) 9 (1955) 215 18 30 42 48 81 152 196 378 788
2022-09-19 17:30 4.68 217 3860 (1982) 9 (1955) 215 18 30 42 48 81 152 196 378 788
2022-09-19 17:00 4.68 217 3860 (1982) 9 (1955) 215 18 30 42 48 81 152 196 378 788
2022-09-19 16:30 4.69 220 3860 (1982) 9 (1955) 215 18 30 42 48 81 152 196 378 788
2022-09-19 16:00 4.69 220 3860 (1982) 9 (1955) 215 18 30 42 48 81 152 196 378 788
2022-09-19 15:30 4.69 220 3860 (1982) 9 (1955) 215 18 30 42 48 81 152 196 378 788
2022-09-19 15:00 4.69 220 3860 (1982) 9 (1955) 215 18 30 42 48 81 152 196 378 788
2022-09-19 14:30 4.69 220 3860 (1982) 9 (1955) 215 18 30 42 48 81 152 196 378 788
2022-09-19 14:00 4.69 220 3860 (1982) 9 (1955) 215 18 30 42 48 81 152 196 378 788
2022-09-19 13:30 4.69 220 3860 (1982) 9 (1955) 215 18 30 42 48 81 152 196 378 788
2022-09-19 13:00 4.69 220 3860 (1982) 9 (1955) 215 18 30 42 48 81 152 196 378 788
2022-09-19 12:30 4.69 220 3860 (1982) 9 (1955) 215 18 30 42 48 81 152 196 378 788
2022-09-19 12:00 4.69 220 3860 (1982) 9 (1955) 215 18 30 42 48 81 152 196 378 788
2022-09-19 11:30 4.66 213 3860 (1982) 9 (1955) 215 18 30 42 48 81 152 196 378 788
2022-09-19 11:00 4.69 220 3860 (1982) 9 (1955) 215 18 30 42 48 81 152 196 378 788
2022-09-19 10:30 4.69 220 3860 (1982) 9 (1955) 215 18 30 42 48 81 152 196 378 788
2022-09-19 10:00 4.69 220 3860 (1982) 9 (1955) 215 18 30 42 48 81 152 196 378 788
2022-09-19 09:30 4.69 220 3860 (1982) 9 (1955) 215 18 30 42 48 81 152 196 378 788
2022-09-19 09:00 4.69 220 3860 (1982) 9 (1955) 215 18 30 42 48 81 152 196 378 788
2022-09-19 08:30 4.69 220 3860 (1982) 9 (1955) 215 18 30 42 48 81 152 196 378 788
2022-09-19 08:00 4.69 220 3860 (1982) 9 (1955) 215 18 30 42 48 81 152 196 378 788
2022-09-19 07:30 4.69 220 3860 (1982) 9 (1955) 215 18 30 42 48 81 152 196 378 788
2022-09-19 07:00 4.69 220 3860 (1982) 9 (1955) 215 18 30 42 48 81 152 196 378 788
2022-09-19 06:30 4.69 220 3860 (1982) 9 (1955) 215 18 30 42 48 81 152 196 378 788
2022-09-19 06:00 4.69 220 3860 (1982) 9 (1955) 215 18 30 42 48 81 152 196 378 788
2022-09-19 05:30 4.69 220 3860 (1982) 9 (1955) 215 18 30 42 48 81 152 196 378 788
2022-09-19 05:00 4.69 220 3860 (1982) 9 (1955) 215 18 30 42 48 81 152 196 378 788
2022-09-19 04:30 4.69 220 3860 (1982) 9 (1955) 215 18 30 42 48 81 152 196 378 788
2022-09-19 04:00 4.69 220 3860 (1982) 9 (1955) 215 18 30 42 48 81 152 196 378 788
2022-09-19 03:30 4.69 220 3860 (1982) 9 (1955) 215 18 30 42 48 81 152 196 378 788
2022-09-19 03:00 4.69 220 3860 (1982) 9 (1955) 215 18 30 42 48 81 152 196 378 788
2022-09-19 02:30 4.69 220 3860 (1982) 9 (1955) 215 18 30 42 48 81 152 196 378 788
2022-09-19 02:00 4.69 220 3860 (1982) 9 (1955) 215 18 30 42 48 81 152 196 378 788
2022-09-19 01:30 4.69 220 3860 (1982) 9 (1955) 215 18 30 42 48 81 152 196 378 788
2022-09-19 01:00 4.69 220 3860 (1982) 9 (1955) 215 18 30 42 48 81 152 196 378 788
2022-09-19 00:30 4.69 220 3860 (1982) 9 (1955) 215 18 30 42 48 81 152 196 378 788
2022-09-19 00:00 4.70 222 3860 (1982) 9 (1955) 215 18 30 42 48 81 152 196 378 788
2022-09-18 23:30 4.70 222 3300 (2016) 10 (1955) 194 18 31 43 50 78 150 200 286 759
2022-09-18 23:00 4.70 222 3300 (2016) 10 (1955) 194 18 31 43 50 78 150 200 286 759
2022-09-18 22:30 4.70 222 3300 (2016) 10 (1955) 194 18 31 43 50 78 150 200 286 759
2022-09-18 22:00 4.70 222 3300 (2016) 10 (1955) 194 18 31 43 50 78 150 200 286 759
2022-09-18 21:30 4.70 222 3300 (2016) 10 (1955) 194 18 31 43 50 78 150 200 286 759
2022-09-18 21:00 4.70 222 3300 (2016) 10 (1955) 194 18 31 43 50 78 150 200 286 759
2022-09-18 20:30 4.70 222 3300 (2016) 10 (1955) 194 18 31 43 50 78 150 200 286 759
2022-09-18 20:00 4.70 222 3300 (2016) 10 (1955) 194 18 31 43 50 78 150 200 286 759
2022-09-18 19:30 4.70 222 3300 (2016) 10 (1955) 194 18 31 43 50 78 150 200 286 759
2022-09-18 19:00 4.70 222 3300 (2016) 10 (1955) 194 18 31 43 50 78 150 200 286 759
2022-09-18 18:30 4.70 222 3300 (2016) 10 (1955) 194 18 31 43 50 78 150 200 286 759
2022-09-18 18:00 4.70 222 3300 (2016) 10 (1955) 194 18 31 43 50 78 150 200 286 759
2022-09-18 17:30 4.70 222 3300 (2016) 10 (1955) 194 18 31 43 50 78 150 200 286 759
2022-09-18 17:00 4.70 222 3300 (2016) 10 (1955) 194 18 31 43 50 78 150 200 286 759
2022-09-18 16:30 4.70 222 3300 (2016) 10 (1955) 194 18 31 43 50 78 150 200 286 759
2022-09-18 16:00 4.67 215 3300 (2016) 10 (1955) 194 18 31 43 50 78 150 200 286 759
2022-09-18 15:30 4.68 217 3300 (2016) 10 (1955) 194 18 31 43 50 78 150 200 286 759
2022-09-18 15:00 4.69 220 3300 (2016) 10 (1955) 194 18 31 43 50 78 150 200 286 759
2022-09-18 14:30 4.71 225 3300 (2016) 10 (1955) 194 18 31 43 50 78 150 200 286 759
2022-09-18 14:00 4.67 215 3300 (2016) 10 (1955) 194 18 31 43 50 78 150 200 286 759
2022-09-18 13:30 4.69 220 3300 (2016) 10 (1955) 194 18 31 43 50 78 150 200 286 759
2022-09-18 13:00 4.70 222 3300 (2016) 10 (1955) 194 18 31 43 50 78 150 200 286 759
2022-09-18 12:30 4.71 225 3300 (2016) 10 (1955) 194 18 31 43 50 78 150 200 286 759
2022-09-18 12:00 4.72 227 3300 (2016) 10 (1955) 194 18 31 43 50 78 150 200 286 759
2022-09-18 11:30 4.72 227 3300 (2016) 10 (1955) 194 18 31 43 50 78 150 200 286 759
2022-09-18 11:00 4.72 227 3300 (2016) 10 (1955) 194 18 31 43 50 78 150 200 286 759
2022-09-18 10:30 4.72 227 3300 (2016) 10 (1955) 194 18 31 43 50 78 150 200 286 759
2022-09-18 10:00 4.71 225 3300 (2016) 10 (1955) 194 18 31 43 50 78 150 200 286 759
2022-09-18 09:30 4.72 227 3300 (2016) 10 (1955) 194 18 31 43 50 78 150 200 286 759
2022-09-18 09:00 4.72 227 3300 (2016) 10 (1955) 194 18 31 43 50 78 150 200 286 759
2022-09-18 08:30 4.72 227 3300 (2016) 10 (1955) 194 18 31 43 50 78 150 200 286 759
2022-09-18 08:00 4.72 227 3300 (2016) 10 (1955) 194 18 31 43 50 78 150 200 286 759
2022-09-18 07:30 4.72 227 3300 (2016) 10 (1955) 194 18 31 43 50 78 150 200 286 759
2022-09-18 07:00 4.72 227 3300 (2016) 10 (1955) 194 18 31 43 50 78 150 200 286 759
2022-09-18 06:30 4.72 227 3300 (2016) 10 (1955) 194 18 31 43 50 78 150 200 286 759
2022-09-18 06:00 4.72 227 3300 (2016) 10 (1955) 194 18 31 43 50 78 150 200 286 759
2022-09-18 05:30 4.72 227 3300 (2016) 10 (1955) 194 18 31 43 50 78 150 200 286 759
2022-09-18 05:00 4.72 227 3300 (2016) 10 (1955) 194 18 31 43 50 78 150 200 286 759
2022-09-18 04:30 4.72 227 3300 (2016) 10 (1955) 194 18 31 43 50 78 150 200 286 759
2022-09-18 04:00 4.71 225 3300 (2016) 10 (1955) 194 18 31 43 50 78 150 200 286 759
2022-09-18 03:30 4.71 225 3300 (2016) 10 (1955) 194 18 31 43 50 78 150 200 286 759
2022-09-18 03:00 4.72 227 3300 (2016) 10 (1955) 194 18 31 43 50 78 150 200 286 759
2022-09-18 02:30 4.72 227 3300 (2016) 10 (1955) 194 18 31 43 50 78 150 200 286 759
2022-09-18 02:00 4.72 227 3300 (2016) 10 (1955) 194 18 31 43 50 78 150 200 286 759
2022-09-18 01:30 4.72 227 3300 (2016) 10 (1955) 194 18 31 43 50 78 150 200 286 759
2022-09-18 01:00 4.72 227 3300 (2016) 10 (1955) 194 18 31 43 50 78 150 200 286 759
2022-09-18 00:30 4.72 227 3300 (2016) 10 (1955) 194 18 31 43 50 78 150 200 286 759
2022-09-18 00:00 4.72 227 3300 (2016) 10 (1955) 194 18 31 43 50 78 150 200 286 759

A total of 377 rows are displayed for years 1921 through 2021.